Winooski, Vermont
Current Conditions -  °F | °C
As of 1:54 PM on Thursday 27 Nov 2014 (Local Time) from KBTV Reporting Station
Overcast Overcast  
Wind Chill: 25°   Ceiling: 3500
Heat Index: 30°   Visibility: 10mi
Dew Point: 20°   Wind: 5mph
Humidity: 66%   Direction: 10°N
Pressure: 30.02"   Gusts: NA
Location:  44.49°N, 73.19°W
Report Text: KBTV 271854Z 01004KT 10SM OVC035 M01/M07 A3002 RMK AO2 SLP172 T10111067
Loading
Personal Weather Stations






























Interactive Weather Map New forecast layout! Learn more

10-Day Weather Forecast

Advertisements
Track Severe Weather on mobile